Weather at La Guardia Airport

Public forecast

Using degrees Fahrenheit for public forecast. Weather courtesy of forecast.io.

Current aviation weather report (METAR) for La Guardia Airport

Retrieved 2020/10/30 23:51 UTC (59 minutes ago):

KLGA 302351Z 01008KT 10SM SCT022 BKN027 BKN055 05/01 A3016 RMK AO2 RAB26E39 SLP214 P0000 60000 T00500006 10067 20050 53036

Aviation forecast (TAF) for La Guardia Airport

Retrieved 2020-10-31 00:24 UTC (26 minutes ago):

TAF KLGA 302322Z 3100/0106 36009KT P6SM SCT030 SCT060 FM310300 35007KT P6SM SKC FM311500 02005KT P6SM SKC FM311900 15005KT P6SM SKC FM010300 18005KT P6SM SCT040